Time;durP1;ratioP1;P1;durP2;ratioP2;P2;SDS_P1;SDS_P2;PMS_P1;PMS_P2;Temp;Humidity;BMP_temperature;BMP_pressure;BME280_temperature;BME280_humidity;BME280_pressure;Samples;Min_cycle;Max_cycle;Signal;HPM_P1;HPM_P2
2023/12/12 00:02:48;;;;;;;;;;;9.30;99.90;;;;;;6707591;88;20051;-77
2023/12/12 00:12:48;;;;;;;;;;;9.30;99.90;;;;;;6707921;88;20076;-77
2023/12/12 00:22:49;;;;;;;;;;;9.30;99.90;;;;;;6708989;88;20091;-77
2023/12/12 00:32:49;;;;;;;;;;;9.40;99.90;;;;;;6707799;88;20063;-77
2023/12/12 00:42:50;;;;;;;;;;;9.40;99.90;;;;;;6708153;88;20059;-78
2023/12/12 00:52:50;;;;;;;;;;;9.30;99.90;;;;;;6698434;88;20099;-77
2023/12/12 01:02:51;;;;;;;;;;;9.30;99.90;;;;;;6698454;88;20070;-77
2023/12/12 01:12:51;;;;;;;;;;;9.20;99.90;;;;;;6706087;88;20070;-78
2023/12/12 01:22:51;;;;;;;;;;;9.20;99.90;;;;;;6711666;88;20056;-78
2023/12/12 01:32:52;;;;;;;;;;;8.90;99.90;;;;;;6703902;88;20184;-78
2023/12/12 01:43:02;;;;;;;;;;;9.00;99.90;;;;;;6703861;88;20117;-76
2023/12/12 01:53:04;;;;;;;;;;;8.90;99.90;;;;;;6701997;88;20760;-77
2023/12/12 02:03:05;;;;;;;;;;;8.70;99.90;;;;;;6703802;88;20084;-78
2023/12/12 02:13:05;;;;;;;;;;;8.60;99.90;;;;;;6711650;88;20058;-78
2023/12/12 02:23:06;;;;;;;;;;;8.50;99.90;;;;;;6702930;88;20071;-76
2023/12/12 02:33:06;;;;;;;;;;;8.60;99.90;;;;;;6706153;88;20130;-77
2023/12/12 02:43:06;;;;;;;;;;;8.60;99.90;;;;;;6703003;88;20105;-76
2023/12/12 02:53:07;;;;;;;;;;;8.70;99.90;;;;;;6703664;88;20063;-76
2023/12/12 03:03:07;;;;;;;;;;;8.70;99.90;;;;;;6700989;88;20079;-76
2023/12/12 03:13:08;;;;;;;;;;;8.60;99.90;;;;;;6701851;88;20848;-78
2023/12/12 03:23:08;;;;;;;;;;;8.70;99.90;;;;;;6705031;88;20085;-77
2023/12/12 03:33:09;;;;;;;;;;;8.60;99.90;;;;;;6708362;88;20134;-76
2023/12/12 03:43:09;;;;;;;;;;;8.50;99.90;;;;;;6704605;88;20103;-77
2023/12/12 03:53:09;;;;;;;;;;;8.50;99.90;;;;;;6718011;88;20109;-77
2023/12/12 04:03:10;;;;;;;;;;;8.50;99.90;;;;;;6705791;88;20072;-78
2023/12/12 04:13:10;;;;;;;;;;;8.60;99.90;;;;;;6713444;88;20109;-77
2023/12/12 04:23:11;;;;;;;;;;;8.60;99.90;;;;;;6712100;88;20155;-77
2023/12/12 04:33:11;;;;;;;;;;;8.60;99.90;;;;;;6713003;88;20649;-77
2023/12/12 04:43:12;;;;;;;;;;;8.70;99.90;;;;;;6706496;88;20807;-78
2023/12/12 04:53:12;;;;;;;;;;;8.70;99.90;;;;;;6707624;88;20060;-77
2023/12/12 05:03:12;;;;;;;;;;;8.80;99.90;;;;;;6704480;88;20097;-77
2023/12/12 05:13:13;;;;;;;;;;;8.80;99.90;;;;;;6700820;88;20067;-77
2023/12/12 05:23:13;;;;;;;;;;;8.90;99.90;;;;;;6700599;88;20540;-77
2023/12/12 05:33:14;;;;;;;;;;;9.00;99.90;;;;;;6704154;88;20167;-77
2023/12/12 05:43:14;;;;;;;;;;;9.00;99.90;;;;;;6700534;88;20088;-78
2023/12/12 05:53:15;;;;;;;;;;;9.10;99.90;;;;;;6702832;88;20179;-77
2023/12/12 06:03:15;;;;;;;;;;;9.20;99.90;;;;;;6701848;88;20218;-77
2023/12/12 06:13:16;;;;;;;;;;;9.20;99.90;;;;;;6703676;88;20194;-77
2023/12/12 06:23:17;;;;;;;;;;;9.10;99.90;;;;;;6707230;88;20146;-77
2023/12/12 06:33:18;;;;;;;;;;;8.70;99.90;;;;;;6701420;88;20110;-78
2023/12/12 06:43:19;;;;;;;;;;;8.70;99.90;;;;;;6709648;88;20067;-78
2023/12/12 06:53:19;;;;;;;;;;;8.80;99.90;;;;;;6706492;88;20067;-78
2023/12/12 07:03:21;;;;;;;;;;;8.60;99.90;;;;;;6710584;88;20094;-79
2023/12/12 07:13:22;;;;;;;;;;;8.40;99.90;;;;;;6708574;88;20076;-79
2023/12/12 07:23:22;;;;;;;;;;;8.30;99.90;;;;;;6711271;88;20082;-78
2023/12/12 07:33:24;;;;;;;;;;;8.10;99.90;;;;;;6708869;88;20502;-78
2023/12/12 07:43:24;;;;;;;;;;;7.90;99.90;;;;;;6709282;88;20059;-76
2023/12/12 07:53:25;;;;;;;;;;;7.70;99.90;;;;;;6716242;88;20084;-77
2023/12/12 08:03:25;;;;;;;;;;;7.60;99.90;;;;;;6710415;88;20502;-77
2023/12/12 08:13:26;;;;;;;;;;;7.60;99.90;;;;;;6708042;88;20055;-77
2023/12/12 08:23:27;;;;;;;;;;;7.60;99.90;;;;;;6707684;88;20083;-78
2023/12/12 08:33:28;;;;;;;;;;;7.60;99.90;;;;;;6710914;88;20051;-77
2023/12/12 08:43:28;;;;;;;;;;;7.90;99.90;;;;;;6708522;88;20120;-77
2023/12/12 08:53:29;;;;;;;;;;;8.10;99.90;;;;;;6708322;88;20113;-77
2023/12/12 09:03:30;;;;;;;;;;;8.20;99.90;;;;;;6706164;88;20079;-77
2023/12/12 09:13:30;;;;;;;;;;;8.40;99.90;;;;;;6711085;88;20083;-77
2023/12/12 09:23:31;;;;;;;;;;;8.50;99.90;;;;;;6705644;88;20241;-77
2023/12/12 09:33:33;;;;;;;;;;;8.50;99.90;;;;;;6711690;88;20058;-77
2023/12/12 09:43:35;;;;;;;;;;;8.50;99.90;;;;;;6709814;88;20075;-77
2023/12/12 09:53:36;;;;;;;;;;;8.50;99.90;;;;;;6705475;88;20649;-77
2023/12/12 10:03:37;;;;;;;;;;;8.60;99.90;;;;;;6703312;88;20056;-76
2023/12/12 10:13:50;;;;;;;;;;;8.70;99.90;;;;;;6702575;88;20490;-77
2023/12/12 10:23:52;;;;;;;;;;;8.70;99.90;;;;;;6704495;88;20185;-77
2023/12/12 10:33:54;;;;;;;;;;;8.80;99.90;;;;;;6706896;88;20512;-78
2023/12/12 10:43:55;;;;;;;;;;;8.90;99.90;;;;;;6703311;88;20059;-77
2023/12/12 10:53:56;;;;;;;;;;;8.90;99.90;;;;;;6707591;88;20126;-78
2023/12/12 11:03:58;;;;;;;;;;;9.00;99.90;;;;;;6710023;88;20068;-77
2023/12/12 11:14:00;;;;;;;;;;;9.30;99.90;;;;;;6705472;88;20056;-78
2023/12/12 11:24:00;;;;;;;;;;;9.50;99.90;;;;;;6710868;88;20090;-77
2023/12/12 11:34:03;;;;;;;;;;;9.60;99.90;;;;;;6709402;88;20594;-78
2023/12/12 11:44:04;;;;;;;;;;;9.70;99.90;;;;;;6704540;88;20078;-78
2023/12/12 11:54:07;;;;;;;;;;;9.90;99.90;;;;;;6707546;88;20072;-78
2023/12/12 12:04:08;;;;;;;;;;;10.10;99.90;;;;;;6703952;88;20482;-78
2023/12/12 12:14:10;;;;;;;;;;;10.30;99.90;;;;;;6708734;88;20066;-79
2023/12/12 12:24:11;;;;;;;;;;;10.20;99.90;;;;;;6704570;88;20058;-77
2023/12/12 12:34:18;;;;;;;;;;;10.30;99.90;;;;;;6706860;88;20116;-78
2023/12/12 12:44:18;;;;;;;;;;;10.20;99.90;;;;;;6706931;88;20051;-78
2023/12/12 12:54:19;;;;;;;;;;;10.00;99.90;;;;;;6705045;88;20527;-79
2023/12/12 13:04:19;;;;;;;;;;;10.00;99.90;;;;;;6704675;88;20179;-77
2023/12/12 13:14:20;;;;;;;;;;;10.00;99.90;;;;;;6710488;88;20651;-78
2023/12/12 13:24:22;;;;;;;;;;;10.10;99.90;;;;;;6709623;88;20069;-78
2023/12/12 13:34:22;;;;;;;;;;;10.10;99.90;;;;;;6703552;88;20438;-77
2023/12/12 13:44:23;;;;;;;;;;;10.10;99.90;;;;;;6705426;88;20198;-77
2023/12/12 13:54:23;;;;;;;;;;;10.20;99.90;;;;;;6704082;88;20134;-77
2023/12/12 14:04:23;;;;;;;;;;;10.20;99.90;;;;;;6704845;88;20056;-77
2023/12/12 14:14:24;;;;;;;;;;;10.10;99.90;;;;;;6700190;88;20060;-77
2023/12/12 14:24:24;;;;;;;;;;;10.00;99.90;;;;;;6703434;88;20138;-77
2023/12/12 14:34:25;;;;;;;;;;;9.90;99.90;;;;;;6707228;88;20072;-77
2023/12/12 14:44:25;;;;;;;;;;;9.90;99.90;;;;;;6711510;88;20548;-77
2023/12/12 14:54:27;;;;;;;;;;;9.80;99.90;;;;;;6714426;88;20068;-77
2023/12/12 15:04:27;;;;;;;;;;;9.80;99.90;;;;;;6708337;88;20103;-77
2023/12/12 15:14:29;;;;;;;;;;;9.80;99.90;;;;;;6705223;88;20618;-77
2023/12/12 15:24:29;;;;;;;;;;;9.70;99.90;;;;;;6704274;88;20060;-78
2023/12/12 15:34:30;;;;;;;;;;;9.70;99.90;;;;;;6702012;88;20133;-78
2023/12/12 15:44:31;;;;;;;;;;;9.50;99.90;;;;;;6701001;88;20171;-78
2023/12/12 15:54:32;;;;;;;;;;;9.50;99.90;;;;;;6702937;88;20076;-77
2023/12/12 16:04:32;;;;;;;;;;;9.30;99.90;;;;;;6704510;88;20067;-76
2023/12/12 16:14:33;;;;;;;;;;;9.20;99.90;;;;;;6699440;88;20092;-77
2023/12/12 16:24:34;;;;;;;;;;;9.10;99.90;;;;;;6700147;88;20077;-75
2023/12/12 16:34:35;;;;;;;;;;;9.00;99.90;;;;;;6704298;88;20531;-76
2023/12/12 16:44:35;;;;;;;;;;;8.90;99.90;;;;;;6701244;88;20081;-75
2023/12/12 16:54:36;;;;;;;;;;;8.90;99.90;;;;;;6699271;88;20523;-76
2023/12/12 17:04:39;;;;;;;;;;;9.00;99.90;;;;;;6707936;88;20116;-76
2023/12/12 17:14:39;;;;;;;;;;;9.10;99.90;;;;;;6706980;88;20201;-78
2023/12/12 17:24:40;;;;;;;;;;;9.30;99.90;;;;;;6708146;88;20088;-78
2023/12/12 17:34:45;;;;;;;;;;;9.40;99.90;;;;;;6707031;88;20940;-77
2023/12/12 17:44:45;;;;;;;;;;;9.40;99.90;;;;;;6707431;88;20064;-78
2023/12/12 17:54:46;;;;;;;;;;;9.50;99.90;;;;;;6706595;88;20118;-78
2023/12/12 18:04:46;;;;;;;;;;;9.50;99.90;;;;;;6705306;88;20063;-77
2023/12/12 18:14:47;;;;;;;;;;;9.50;99.90;;;;;;6699318;88;20145;-77
2023/12/12 18:24:47;;;;;;;;;;;9.40;99.90;;;;;;6705121;88;20202;-77
2023/12/12 18:34:48;;;;;;;;;;;9.40;99.90;;;;;;6704162;88;20163;-77
2023/12/12 18:44:48;;;;;;;;;;;9.50;99.90;;;;;;6697666;88;20079;-76
2023/12/12 18:54:49;;;;;;;;;;;9.50;99.90;;;;;;6698981;88;20129;-77
2023/12/12 19:04:49;;;;;;;;;;;9.40;99.90;;;;;;6709415;88;20064;-78
2023/12/12 19:14:50;;;;;;;;;;;9.40;99.90;;;;;;6705143;88;20109;-75
2023/12/12 19:24:50;;;;;;;;;;;9.40;99.90;;;;;;6703134;88;20067;-76
2023/12/12 19:34:51;;;;;;;;;;;9.40;99.90;;;;;;6704585;88;20048;-77
2023/12/12 19:44:52;;;;;;;;;;;9.40;99.90;;;;;;6704181;88;20434;-77
2023/12/12 19:54:52;;;;;;;;;;;9.60;99.90;;;;;;6706049;88;20120;-77
2023/12/12 20:04:53;;;;;;;;;;;9.50;99.90;;;;;;6705147;88;20081;-77
2023/12/12 20:14:54;;;;;;;;;;;9.60;99.90;;;;;;6704777;88;20064;-77
2023/12/12 20:24:54;;;;;;;;;;;9.80;99.90;;;;;;6709053;88;20113;-77
2023/12/12 20:34:54;;;;;;;;;;;10.00;99.90;;;;;;6704956;88;20070;-77
2023/12/12 20:44:55;;;;;;;;;;;9.80;99.90;;;;;;6703763;88;20803;-78
2023/12/12 20:54:57;;;;;;;;;;;9.60;99.90;;;;;;6707404;88;20063;-78
2023/12/12 21:04:57;;;;;;;;;;;9.40;99.90;;;;;;6708539;88;20524;-76
2023/12/12 21:14:58;;;;;;;;;;;9.10;99.90;;;;;;6707219;88;20102;-79
2023/12/12 21:24:58;;;;;;;;;;;9.00;99.90;;;;;;6704474;88;20089;-77
2023/12/12 21:35:00;;;;;;;;;;;8.70;99.90;;;;;;6709842;88;20079;-77
2023/12/12 21:45:01;;;;;;;;;;;8.70;99.90;;;;;;6710804;88;20089;-79
2023/12/12 21:55:02;;;;;;;;;;;8.80;99.90;;;;;;6707882;88;20069;-77
2023/12/12 22:05:03;;;;;;;;;;;8.90;99.90;;;;;;6706491;88;20069;-77
2023/12/12 22:15:04;;;;;;;;;;;9.00;99.90;;;;;;6703439;88;20143;-77
2023/12/12 22:25:05;;;;;;;;;;;9.20;99.90;;;;;;6704532;88;20636;-78
2023/12/12 22:35:06;;;;;;;;;;;9.30;99.90;;;;;;6697809;88;20090;-78
2023/12/12 22:45:07;;;;;;;;;;;8.70;99.90;;;;;;6701822;88;20084;-77
2023/12/12 22:55:07;;;;;;;;;;;8.50;99.90;;;;;;6708359;88;20121;-78
2023/12/12 23:05:08;;;;;;;;;;;8.40;99.90;;;;;;6706603;88;20068;-77
2023/12/12 23:15:09;;;;;;;;;;;8.30;99.90;;;;;;6701951;88;20112;-77
2023/12/12 23:25:09;;;;;;;;;;;8.20;99.90;;;;;;6708130;88;20085;-77
2023/12/12 23:35:10;;;;;;;;;;;8.10;99.90;;;;;;6709931;88;20545;-77
2023/12/12 23:45:11;;;;;;;;;;;8.00;99.90;;;;;;6707256;88;20175;-77
2023/12/12 23:55:11;;;;;;;;;;;8.20;99.90;;;;;;6706017;88;20068;-76
